sensor_id;sensor_type;location;lat;lon;timestamp;P1;durP1;ratioP1;P2;durP2;ratioP2
1136;SDS011;557;48.466;7.950;2024-02-21T00:01:22;10.93;;;4.70;;
1136;SDS011;557;48.466;7.950;2024-02-21T00:03:49;16.00;;;5.60;;
1136;SDS011;557;48.466;7.950;2024-02-21T00:06:16;9.53;;;5.17;;
1136;SDS011;557;48.466;7.950;2024-02-21T00:08:43;11.53;;;4.57;;
1136;SDS011;557;48.466;7.950;2024-02-21T00:11:10;10.30;;;6.20;;
1136;SDS011;557;48.466;7.950;2024-02-21T00:13:37;10.90;;;4.97;;
1136;SDS011;557;48.466;7.950;2024-02-21T00:16:05;10.90;;;4.87;;
1136;SDS011;557;48.466;7.950;2024-02-21T00:18:34;12.27;;;5.10;;
1136;SDS011;557;48.466;7.950;2024-02-21T00:21:01;7.23;;;4.10;;
1136;SDS011;557;48.466;7.950;2024-02-21T00:23:27;15.13;;;5.80;;
1136;SDS011;557;48.466;7.950;2024-02-21T00:25:54;12.23;;;4.43;;
1136;SDS011;557;48.466;7.950;2024-02-21T00:28:21;12.60;;;4.90;;
1136;SDS011;557;48.466;7.950;2024-02-21T00:30:48;7.00;;;4.57;;
1136;SDS011;557;48.466;7.950;2024-02-21T00:33:16;14.90;;;4.83;;
1136;SDS011;557;48.466;7.950;2024-02-21T00:35:44;11.70;;;4.77;;
1136;SDS011;557;48.466;7.950;2024-02-21T00:38:11;12.50;;;4.13;;
1136;SDS011;557;48.466;7.950;2024-02-21T00:40:38;10.90;;;4.93;;
1136;SDS011;557;48.466;7.950;2024-02-21T00:43:05;9.20;;;4.40;;
1136;SDS011;557;48.466;7.950;2024-02-21T00:45:32;8.30;;;3.70;;
1136;SDS011;557;48.466;7.950;2024-02-21T00:47:59;13.80;;;5.40;;
1136;SDS011;557;48.466;7.950;2024-02-21T00:50:26;13.67;;;5.20;;
1136;SDS011;557;48.466;7.950;2024-02-21T00:52:55;11.97;;;4.97;;
1136;SDS011;557;48.466;7.950;2024-02-21T00:55:22;10.23;;;4.70;;
1136;SDS011;557;48.466;7.950;2024-02-21T00:57:49;10.50;;;4.57;;
1136;SDS011;557;48.466;7.950;2024-02-21T01:00:17;9.20;;;4.67;;
1136;SDS011;557;48.466;7.950;2024-02-21T01:02:44;10.60;;;4.93;;
1136;SDS011;557;48.466;7.950;2024-02-21T01:05:11;8.17;;;4.40;;
1136;SDS011;557;48.466;7.950;2024-02-21T01:07:38;6.03;;;4.47;;
1136;SDS011;557;48.466;7.950;2024-02-21T01:10:07;11.03;;;5.20;;
1136;SDS011;557;48.466;7.950;2024-02-21T01:12:34;8.60;;;5.27;;
1136;SDS011;557;48.466;7.950;2024-02-21T01:15:02;8.03;;;4.90;;
1136;SDS011;557;48.466;7.950;2024-02-21T01:17:29;7.93;;;4.80;;
1136;SDS011;557;48.466;7.950;2024-02-21T01:19:56;11.70;;;5.20;;
1136;SDS011;557;48.466;7.950;2024-02-21T01:22:25;9.13;;;5.47;;
1136;SDS011;557;48.466;7.950;2024-02-21T01:24:52;11.63;;;4.43;;
1136;SDS011;557;48.466;7.950;2024-02-21T01:27:20;8.30;;;4.23;;
1136;SDS011;557;48.466;7.950;2024-02-21T01:29:48;10.40;;;4.13;;
1136;SDS011;557;48.466;7.950;2024-02-21T01:32:15;9.20;;;3.63;;
1136;SDS011;557;48.466;7.950;2024-02-21T01:34:42;7.40;;;3.40;;
1136;SDS011;557;48.466;7.950;2024-02-21T01:37:09;12.97;;;5.40;;
1136;SDS011;557;48.466;7.950;2024-02-21T01:39:36;11.40;;;4.43;;
1136;SDS011;557;48.466;7.950;2024-02-21T01:42:05;9.93;;;3.87;;
1136;SDS011;557;48.466;7.950;2024-02-21T01:44:35;9.43;;;3.90;;
1136;SDS011;557;48.466;7.950;2024-02-21T01:47:03;7.23;;;3.97;;
1136;SDS011;557;48.466;7.950;2024-02-21T01:49:30;7.63;;;3.73;;
1136;SDS011;557;48.466;7.950;2024-02-21T01:51:57;7.53;;;3.90;;
1136;SDS011;557;48.466;7.950;2024-02-21T01:54:26;7.40;;;3.27;;
1136;SDS011;557;48.466;7.950;2024-02-21T01:56:54;10.20;;;3.57;;
1136;SDS011;557;48.466;7.950;2024-02-21T01:59:21;11.30;;;4.10;;
1136;SDS011;557;48.466;7.950;2024-02-21T02:01:51;10.03;;;4.67;;
1136;SDS011;557;48.466;7.950;2024-02-21T02:04:18;10.40;;;4.40;;
1136;SDS011;557;48.466;7.950;2024-02-21T02:06:46;10.30;;;4.63;;
1136;SDS011;557;48.466;7.950;2024-02-21T02:09:17;11.20;;;4.50;;
1136;SDS011;557;48.466;7.950;2024-02-21T02:11:44;8.63;;;4.00;;
1136;SDS011;557;48.466;7.950;2024-02-21T02:14:11;8.67;;;4.20;;
1136;SDS011;557;48.466;7.950;2024-02-21T02:16:38;8.60;;;4.03;;
1136;SDS011;557;48.466;7.950;2024-02-21T02:19:07;7.83;;;3.93;;
1136;SDS011;557;48.466;7.950;2024-02-21T02:21:38;7.37;;;3.87;;
1136;SDS011;557;48.466;7.950;2024-02-21T02:24:09;6.20;;;3.60;;
1136;SDS011;557;48.466;7.950;2024-02-21T02:26:36;8.33;;;4.00;;
1136;SDS011;557;48.466;7.950;2024-02-21T02:29:03;9.30;;;4.03;;
1136;SDS011;557;48.466;7.950;2024-02-21T02:31:30;5.90;;;3.93;;
1136;SDS011;557;48.466;7.950;2024-02-21T02:33:57;7.43;;;3.30;;
1136;SDS011;557;48.466;7.950;2024-02-21T02:36:24;11.47;;;4.03;;
1136;SDS011;557;48.466;7.950;2024-02-21T02:38:51;8.53;;;4.40;;
1136;SDS011;557;48.466;7.950;2024-02-21T02:41:20;5.60;;;3.37;;
1136;SDS011;557;48.466;7.950;2024-02-21T02:43:47;5.93;;;3.67;;
1136;SDS011;557;48.466;7.950;2024-02-21T02:46:14;6.40;;;4.00;;
1136;SDS011;557;48.466;7.950;2024-02-21T02:48:41;11.53;;;4.80;;
1136;SDS011;557;48.466;7.950;2024-02-21T02:51:08;8.77;;;4.80;;
1136;SDS011;557;48.466;7.950;2024-02-21T02:53:35;7.07;;;3.83;;
1136;SDS011;557;48.466;7.950;2024-02-21T02:56:01;10.07;;;3.87;;
1136;SDS011;557;48.466;7.950;2024-02-21T02:58:30;7.43;;;3.80;;
1136;SDS011;557;48.466;7.950;2024-02-21T03:00:57;7.67;;;3.50;;
1136;SDS011;557;48.466;7.950;2024-02-21T03:03:24;7.30;;;3.83;;
1136;SDS011;557;48.466;7.950;2024-02-21T03:05:50;10.60;;;4.40;;
1136;SDS011;557;48.466;7.950;2024-02-21T03:08:17;7.13;;;4.10;;
1136;SDS011;557;48.466;7.950;2024-02-21T03:10:44;9.00;;;4.30;;
1136;SDS011;557;48.466;7.950;2024-02-21T03:13:11;7.20;;;4.90;;
1136;SDS011;557;48.466;7.950;2024-02-21T03:15:39;10.30;;;3.73;;
1136;SDS011;557;48.466;7.950;2024-02-21T03:18:06;11.10;;;4.40;;
1136;SDS011;557;48.466;7.950;2024-02-21T03:20:33;6.50;;;4.00;;
1136;SDS011;557;48.466;7.950;2024-02-21T03:23:00;9.03;;;3.03;;
1136;SDS011;557;48.466;7.950;2024-02-21T03:25:27;11.60;;;4.70;;
1136;SDS011;557;48.466;7.950;2024-02-21T03:27:53;10.70;;;4.07;;
1136;SDS011;557;48.466;7.950;2024-02-21T03:30:20;10.60;;;4.73;;
1136;SDS011;557;48.466;7.950;2024-02-21T03:32:49;6.57;;;3.67;;
1136;SDS011;557;48.466;7.950;2024-02-21T03:35:16;10.00;;;4.33;;
1136;SDS011;557;48.466;7.950;2024-02-21T03:37:44;10.83;;;4.27;;
1136;SDS011;557;48.466;7.950;2024-02-21T03:40:11;8.10;;;4.37;;
1136;SDS011;557;48.466;7.950;2024-02-21T03:42:38;9.20;;;4.70;;
1136;SDS011;557;48.466;7.950;2024-02-21T03:45:06;8.33;;;4.83;;
1136;SDS011;557;48.466;7.950;2024-02-21T03:47:33;8.90;;;4.93;;
1136;SDS011;557;48.466;7.950;2024-02-21T03:50:01;9.87;;;4.20;;
1136;SDS011;557;48.466;7.950;2024-02-21T03:52:29;6.40;;;4.10;;
1136;SDS011;557;48.466;7.950;2024-02-21T03:54:56;12.87;;;4.77;;
1136;SDS011;557;48.466;7.950;2024-02-21T03:57:23;6.93;;;4.10;;
1136;SDS011;557;48.466;7.950;2024-02-21T03:59:50;7.37;;;3.93;;
1136;SDS011;557;48.466;7.950;2024-02-21T04:02:17;7.13;;;3.67;;
1136;SDS011;557;48.466;7.950;2024-02-21T04:04:44;9.03;;;4.90;;
1136;SDS011;557;48.466;7.950;2024-02-21T04:07:14;7.40;;;4.87;;
1136;SDS011;557;48.466;7.950;2024-02-21T04:09:41;7.90;;;4.37;;
1136;SDS011;557;48.466;7.950;2024-02-21T04:12:08;10.47;;;4.57;;
1136;SDS011;557;48.466;7.950;2024-02-21T04:14:35;7.73;;;3.90;;
1136;SDS011;557;48.466;7.950;2024-02-21T04:17:02;11.40;;;4.10;;
1136;SDS011;557;48.466;7.950;2024-02-21T04:19:30;10.80;;;4.07;;
1136;SDS011;557;48.466;7.950;2024-02-21T04:21:58;9.63;;;3.90;;
1136;SDS011;557;48.466;7.950;2024-02-21T04:24:27;14.97;;;4.07;;
1136;SDS011;557;48.466;7.950;2024-02-21T04:26:53;7.40;;;3.53;;
1136;SDS011;557;48.466;7.950;2024-02-21T04:29:20;10.70;;;3.43;;
1136;SDS011;557;48.466;7.950;2024-02-21T04:31:47;7.67;;;4.13;;
1136;SDS011;557;48.466;7.950;2024-02-21T04:34:14;8.40;;;3.80;;
1136;SDS011;557;48.466;7.950;2024-02-21T04:36:41;13.27;;;4.83;;
1136;SDS011;557;48.466;7.950;2024-02-21T04:39:08;9.80;;;3.60;;
1136;SDS011;557;48.466;7.950;2024-02-21T04:41:38;6.23;;;3.97;;
1136;SDS011;557;48.466;7.950;2024-02-21T04:44:04;11.33;;;4.63;;
1136;SDS011;557;48.466;7.950;2024-02-21T04:46:31;7.07;;;4.47;;
1136;SDS011;557;48.466;7.950;2024-02-21T04:48:58;8.63;;;4.77;;
1136;SDS011;557;48.466;7.950;2024-02-21T04:51:25;6.87;;;3.57;;
1136;SDS011;557;48.466;7.950;2024-02-21T04:53:52;5.80;;;4.23;;
1136;SDS011;557;48.466;7.950;2024-02-21T04:56:19;6.87;;;3.90;;
1136;SDS011;557;48.466;7.950;2024-02-21T04:58:47;8.50;;;3.80;;
1136;SDS011;557;48.466;7.950;2024-02-21T05:01:14;13.67;;;4.80;;
1136;SDS011;557;48.466;7.950;2024-02-21T05:03:41;11.03;;;4.00;;
1136;SDS011;557;48.466;7.950;2024-02-21T05:06:08;18.23;;;4.90;;
1136;SDS011;557;48.466;7.950;2024-02-21T05:08:34;8.13;;;4.80;;
1136;SDS011;557;48.466;7.950;2024-02-21T05:11:01;7.27;;;4.30;;
1136;SDS011;557;48.466;7.950;2024-02-21T05:13:28;6.63;;;4.00;;
1136;SDS011;557;48.466;7.950;2024-02-21T05:15:57;9.60;;;4.50;;
1136;SDS011;557;48.466;7.950;2024-02-21T05:18:26;6.77;;;4.17;;
1136;SDS011;557;48.466;7.950;2024-02-21T05:20:53;8.07;;;4.30;;
1136;SDS011;557;48.466;7.950;2024-02-21T05:23:20;5.70;;;3.53;;
1136;SDS011;557;48.466;7.950;2024-02-21T05:25:49;7.20;;;3.83;;
1136;SDS011;557;48.466;7.950;2024-02-21T05:28:16;11.07;;;4.60;;
1136;SDS011;557;48.466;7.950;2024-02-21T05:30:42;9.43;;;4.73;;
1136;SDS011;557;48.466;7.950;2024-02-21T05:33:11;7.87;;;4.67;;
1136;SDS011;557;48.466;7.950;2024-02-21T05:35:37;10.43;;;4.80;;
1136;SDS011;557;48.466;7.950;2024-02-21T05:38:04;11.97;;;4.20;;
1136;SDS011;557;48.466;7.950;2024-02-21T05:40:36;15.00;;;5.50;;
1136;SDS011;557;48.466;7.950;2024-02-21T05:43:03;10.27;;;4.53;;
1136;SDS011;557;48.466;7.950;2024-02-21T05:45:30;7.83;;;4.77;;
1136;SDS011;557;48.466;7.950;2024-02-21T05:47:57;8.60;;;3.73;;
1136;SDS011;557;48.466;7.950;2024-02-21T05:50:26;9.73;;;4.07;;
1136;SDS011;557;48.466;7.950;2024-02-21T05:52:53;13.80;;;5.40;;
1136;SDS011;557;48.466;7.950;2024-02-21T05:55:21;9.70;;;4.70;;
1136;SDS011;557;48.466;7.950;2024-02-21T05:57:48;10.37;;;4.80;;
1136;SDS011;557;48.466;7.950;2024-02-21T06:00:16;7.53;;;5.10;;
1136;SDS011;557;48.466;7.950;2024-02-21T06:02:43;12.23;;;5.07;;
1136;SDS011;557;48.466;7.950;2024-02-21T06:05:10;9.50;;;4.53;;
1136;SDS011;557;48.466;7.950;2024-02-21T06:07:38;10.63;;;4.43;;
1136;SDS011;557;48.466;7.950;2024-02-21T06:10:16;7.90;;;4.27;;
1136;SDS011;557;48.466;7.950;2024-02-21T06:12:43;7.30;;;4.73;;
1136;SDS011;557;48.466;7.950;2024-02-21T06:15:11;6.60;;;3.73;;
1136;SDS011;557;48.466;7.950;2024-02-21T06:17:38;6.23;;;4.33;;
1136;SDS011;557;48.466;7.950;2024-02-21T06:20:07;9.60;;;4.33;;
1136;SDS011;557;48.466;7.950;2024-02-21T06:22:34;7.03;;;3.70;;
1136;SDS011;557;48.466;7.950;2024-02-21T06:25:09;8.77;;;4.30;;
1136;SDS011;557;48.466;7.950;2024-02-21T06:27:36;14.67;;;4.07;;
1136;SDS011;557;48.466;7.950;2024-02-21T06:30:03;9.30;;;4.50;;
1136;SDS011;557;48.466;7.950;2024-02-21T06:32:30;7.50;;;4.73;;
1136;SDS011;557;48.466;7.950;2024-02-21T06:34:57;6.90;;;4.27;;
1136;SDS011;557;48.466;7.950;2024-02-21T06:37:27;12.10;;;4.90;;
1136;SDS011;557;48.466;7.950;2024-02-21T06:39:55;6.60;;;4.20;;
1136;SDS011;557;48.466;7.950;2024-02-21T06:42:25;7.80;;;4.30;;
1136;SDS011;557;48.466;7.950;2024-02-21T06:44:52;7.77;;;3.93;;
1136;SDS011;557;48.466;7.950;2024-02-21T06:47:19;11.67;;;4.87;;
1136;SDS011;557;48.466;7.950;2024-02-21T06:49:48;6.00;;;3.77;;
1136;SDS011;557;48.466;7.950;2024-02-21T06:52:17;9.93;;;4.47;;
1136;SDS011;557;48.466;7.950;2024-02-21T06:54:46;9.53;;;4.40;;
1136;SDS011;557;48.466;7.950;2024-02-21T06:57:13;9.63;;;3.43;;
1136;SDS011;557;48.466;7.950;2024-02-21T06:59:42;12.03;;;4.30;;
1136;SDS011;557;48.466;7.950;2024-02-21T07:02:08;7.73;;;3.93;;
1136;SDS011;557;48.466;7.950;2024-02-21T07:04:35;6.97;;;3.97;;
1136;SDS011;557;48.466;7.950;2024-02-21T07:07:02;7.70;;;4.53;;
1136;SDS011;557;48.466;7.950;2024-02-21T07:09:29;6.47;;;4.57;;
1136;SDS011;557;48.466;7.950;2024-02-21T07:11:57;9.40;;;4.60;;
1136;SDS011;557;48.466;7.950;2024-02-21T07:14:24;5.73;;;3.90;;
1136;SDS011;557;48.466;7.950;2024-02-21T07:16:52;7.77;;;4.20;;
1136;SDS011;557;48.466;7.950;2024-02-21T07:19:19;9.70;;;4.50;;
1136;SDS011;557;48.466;7.950;2024-02-21T07:21:46;11.50;;;4.70;;
1136;SDS011;557;48.466;7.950;2024-02-21T07:24:13;6.50;;;3.57;;
1136;SDS011;557;48.466;7.950;2024-02-21T07:26:41;9.80;;;5.20;;
1136;SDS011;557;48.466;7.950;2024-02-21T07:29:09;7.10;;;4.47;;
1136;SDS011;557;48.466;7.950;2024-02-21T07:31:38;7.50;;;4.37;;
1136;SDS011;557;48.466;7.950;2024-02-21T07:34:08;6.00;;;3.70;;
1136;SDS011;557;48.466;7.950;2024-02-21T07:36:35;7.20;;;3.57;;
1136;SDS011;557;48.466;7.950;2024-02-21T07:39:02;7.13;;;4.10;;
1136;SDS011;557;48.466;7.950;2024-02-21T07:41:30;8.67;;;3.60;;
1136;SDS011;557;48.466;7.950;2024-02-21T07:43:58;9.60;;;3.93;;
1136;SDS011;557;48.466;7.950;2024-02-21T07:46:32;6.90;;;3.13;;
1136;SDS011;557;48.466;7.950;2024-02-21T07:49:00;7.23;;;4.00;;
1136;SDS011;557;48.466;7.950;2024-02-21T07:51:28;6.70;;;3.50;;
1136;SDS011;557;48.466;7.950;2024-02-21T07:53:55;4.63;;;3.33;;
1136;SDS011;557;48.466;7.950;2024-02-21T07:56:27;6.97;;;3.90;;
1136;SDS011;557;48.466;7.950;2024-02-21T07:58:54;8.07;;;3.50;;
1136;SDS011;557;48.466;7.950;2024-02-21T08:01:21;9.73;;;3.97;;
1136;SDS011;557;48.466;7.950;2024-02-21T08:03:48;6.53;;;4.10;;
1136;SDS011;557;48.466;7.950;2024-02-21T08:06:15;10.30;;;4.77;;
1136;SDS011;557;48.466;7.950;2024-02-21T08:08:43;10.77;;;6.70;;
1136;SDS011;557;48.466;7.950;2024-02-21T08:11:11;7.90;;;5.30;;
1136;SDS011;557;48.466;7.950;2024-02-21T08:13:38;9.40;;;5.27;;
1136;SDS011;557;48.466;7.950;2024-02-21T08:16:06;8.53;;;5.00;;
1136;SDS011;557;48.466;7.950;2024-02-21T08:18:33;8.67;;;4.60;;
1136;SDS011;557;48.466;7.950;2024-02-21T08:21:01;9.13;;;4.50;;
1136;SDS011;557;48.466;7.950;2024-02-21T08:23:30;8.20;;;3.80;;
1136;SDS011;557;48.466;7.950;2024-02-21T08:25:59;5.67;;;3.33;;
1136;SDS011;557;48.466;7.950;2024-02-21T08:28:28;7.10;;;4.50;;
1136;SDS011;557;48.466;7.950;2024-02-21T08:30:55;6.57;;;4.57;;
1136;SDS011;557;48.466;7.950;2024-02-21T08:33:25;8.37;;;3.70;;
1136;SDS011;557;48.466;7.950;2024-02-21T08:35:52;6.93;;;3.93;;
1136;SDS011;557;48.466;7.950;2024-02-21T08:38:19;3.87;;;3.40;;
1136;SDS011;557;48.466;7.950;2024-02-21T08:40:46;7.10;;;3.87;;
1136;SDS011;557;48.466;7.950;2024-02-21T08:43:14;6.00;;;3.60;;
1136;SDS011;557;48.466;7.950;2024-02-21T08:45:42;8.13;;;3.73;;
1136;SDS011;557;48.466;7.950;2024-02-21T08:48:09;8.03;;;3.57;;
1136;SDS011;557;48.466;7.950;2024-02-21T08:50:36;9.80;;;4.37;;
1136;SDS011;557;48.466;7.950;2024-02-21T08:53:03;15.13;;;4.70;;
1136;SDS011;557;48.466;7.950;2024-02-21T08:55:30;6.70;;;2.83;;
1136;SDS011;557;48.466;7.950;2024-02-21T08:57:57;10.17;;;3.80;;
1136;SDS011;557;48.466;7.950;2024-02-21T09:00:26;4.90;;;3.30;;
1136;SDS011;557;48.466;7.950;2024-02-21T09:02:53;8.67;;;3.83;;
1136;SDS011;557;48.466;7.950;2024-02-21T09:05:21;7.90;;;3.50;;
1136;SDS011;557;48.466;7.950;2024-02-21T09:07:50;6.33;;;3.43;;
1136;SDS011;557;48.466;7.950;2024-02-21T09:10:17;5.57;;;3.60;;
1136;SDS011;557;48.466;7.950;2024-02-21T09:12:43;5.53;;;3.43;;
1136;SDS011;557;48.466;7.950;2024-02-21T09:15:10;6.20;;;3.80;;
1136;SDS011;557;48.466;7.950;2024-02-21T09:17:39;10.73;;;4.40;;
1136;SDS011;557;48.466;7.950;2024-02-21T09:20:06;5.00;;;3.77;;
1136;SDS011;557;48.466;7.950;2024-02-21T09:25:08;7.87;;;3.83;;
1136;SDS011;557;48.466;7.950;2024-02-21T09:27:37;5.93;;;3.30;;
1136;SDS011;557;48.466;7.950;2024-02-21T09:30:06;5.67;;;3.30;;
1136;SDS011;557;48.466;7.950;2024-02-21T09:32:33;5.90;;;3.50;;
1136;SDS011;557;48.466;7.950;2024-02-21T09:35:02;7.53;;;3.93;;
1136;SDS011;557;48.466;7.950;2024-02-21T09:37:30;5.33;;;3.30;;
1136;SDS011;557;48.466;7.950;2024-02-21T09:39:57;6.10;;;3.40;;
1136;SDS011;557;48.466;7.950;2024-02-21T09:42:25;9.30;;;4.47;;
1136;SDS011;557;48.466;7.950;2024-02-21T09:45:03;5.60;;;3.83;;
1136;SDS011;557;48.466;7.950;2024-02-21T09:47:37;3.90;;;3.60;;
1136;SDS011;557;48.466;7.950;2024-02-21T09:50:11;4.40;;;4.00;;
1136;SDS011;557;48.466;7.950;2024-02-21T09:52:39;10.60;;;4.00;;
1136;SDS011;557;48.466;7.950;2024-02-21T09:55:07;4.93;;;3.90;;
1136;SDS011;557;48.466;7.950;2024-02-21T09:57:37;6.23;;;4.10;;
1136;SDS011;557;48.466;7.950;2024-02-21T10:00:04;5.80;;;4.43;;
1136;SDS011;557;48.466;7.950;2024-02-21T10:02:35;5.50;;;4.00;;
1136;SDS011;557;48.466;7.950;2024-02-21T10:05:02;5.47;;;3.80;;
1136;SDS011;557;48.466;7.950;2024-02-21T10:07:34;6.50;;;4.10;;
1136;SDS011;557;48.466;7.950;2024-02-21T10:10:01;6.03;;;4.53;;
1136;SDS011;557;48.466;7.950;2024-02-21T10:12:28;7.70;;;4.80;;
1136;SDS011;557;48.466;7.950;2024-02-21T10:15:02;8.03;;;4.70;;
1136;SDS011;557;48.466;7.950;2024-02-21T10:17:30;7.87;;;4.27;;
1136;SDS011;557;48.466;7.950;2024-02-21T10:20:06;5.70;;;4.80;;
1136;SDS011;557;48.466;7.950;2024-02-21T10:22:35;5.10;;;4.60;;
1136;SDS011;557;48.466;7.950;2024-02-21T10:25:07;5.43;;;4.40;;
1136;SDS011;557;48.466;7.950;2024-02-21T10:27:34;5.73;;;5.00;;
1136;SDS011;557;48.466;7.950;2024-02-21T10:30:02;7.10;;;5.40;;
1136;SDS011;557;48.466;7.950;2024-02-21T10:32:30;5.50;;;4.90;;
1136;SDS011;557;48.466;7.950;2024-02-21T10:35:01;6.57;;;5.93;;
1136;SDS011;557;48.466;7.950;2024-02-21T10:37:29;6.87;;;6.17;;
1136;SDS011;557;48.466;7.950;2024-02-21T10:39:58;8.30;;;6.37;;
1136;SDS011;557;48.466;7.950;2024-02-21T10:42:26;7.13;;;6.40;;
1136;SDS011;557;48.466;7.950;2024-02-21T10:45:00;6.63;;;5.90;;
1136;SDS011;557;48.466;7.950;2024-02-21T10:47:29;9.57;;;6.57;;
1136;SDS011;557;48.466;7.950;2024-02-21T10:50:00;6.37;;;5.73;;
1136;SDS011;557;48.466;7.950;2024-02-21T10:52:31;8.63;;;6.30;;
1136;SDS011;557;48.466;7.950;2024-02-21T10:55:08;6.13;;;5.50;;
1136;SDS011;557;48.466;7.950;2024-02-21T10:57:40;9.63;;;6.10;;
1136;SDS011;557;48.466;7.950;2024-02-21T11:00:08;6.73;;;5.80;;
1136;SDS011;557;48.466;7.950;2024-02-21T11:02:37;9.70;;;6.27;;
1136;SDS011;557;48.466;7.950;2024-02-21T11:05:06;6.17;;;5.57;;
1136;SDS011;557;48.466;7.950;2024-02-21T11:07:35;7.33;;;6.50;;
1136;SDS011;557;48.466;7.950;2024-02-21T11:10:19;7.57;;;6.70;;
1136;SDS011;557;48.466;7.950;2024-02-21T11:12:48;7.07;;;6.57;;
1136;SDS011;557;48.466;7.950;2024-02-21T11:15:15;10.23;;;7.00;;
1136;SDS011;557;48.466;7.950;2024-02-21T11:17:42;9.80;;;7.17;;
1136;SDS011;557;48.466;7.950;2024-02-21T11:20:21;9.90;;;8.23;;
1136;SDS011;557;48.466;7.950;2024-02-21T11:22:59;8.07;;;7.30;;
1136;SDS011;557;48.466;7.950;2024-02-21T11:25:27;8.60;;;7.80;;
1136;SDS011;557;48.466;7.950;2024-02-21T11:28:01;9.83;;;8.60;;
1136;SDS011;557;48.466;7.950;2024-02-21T11:30:29;8.97;;;8.17;;
1136;SDS011;557;48.466;7.950;2024-02-21T11:33:01;11.63;;;9.13;;
1136;SDS011;557;48.466;7.950;2024-02-21T11:35:33;11.00;;;9.80;;
1136;SDS011;557;48.466;7.950;2024-02-21T11:38:10;9.37;;;8.40;;
1136;SDS011;557;48.466;7.950;2024-02-21T11:40:43;10.90;;;7.80;;
1136;SDS011;557;48.466;7.950;2024-02-21T11:43:11;10.67;;;9.30;;
1136;SDS011;557;48.466;7.950;2024-02-21T11:45:38;8.87;;;8.10;;
1136;SDS011;557;48.466;7.950;2024-02-21T11:48:05;9.00;;;8.30;;
1136;SDS011;557;48.466;7.950;2024-02-21T11:50:33;12.03;;;10.10;;
1136;SDS011;557;48.466;7.950;2024-02-21T11:53:01;11.20;;;9.90;;
1136;SDS011;557;48.466;7.950;2024-02-21T11:55:28;10.23;;;9.20;;
1136;SDS011;557;48.466;7.950;2024-02-21T11:57:57;9.50;;;8.90;;
1136;SDS011;557;48.466;7.950;2024-02-21T12:00:25;11.30;;;10.27;;
1136;SDS011;557;48.466;7.950;2024-02-21T12:02:52;10.30;;;9.30;;
1136;SDS011;557;48.466;7.950;2024-02-21T12:05:20;10.53;;;9.63;;
1136;SDS011;557;48.466;7.950;2024-02-21T12:07:47;10.07;;;9.30;;
1136;SDS011;557;48.466;7.950;2024-02-21T12:10:15;10.30;;;9.40;;
1136;SDS011;557;48.466;7.950;2024-02-21T12:12:42;10.20;;;9.40;;
1136;SDS011;557;48.466;7.950;2024-02-21T12:15:10;10.27;;;9.33;;
1136;SDS011;557;48.466;7.950;2024-02-21T12:17:39;10.10;;;9.40;;
1136;SDS011;557;48.466;7.950;2024-02-21T12:20:06;9.20;;;8.50;;
1136;SDS011;557;48.466;7.950;2024-02-21T12:22:36;10.63;;;9.60;;
1136;SDS011;557;48.466;7.950;2024-02-21T12:25:03;10.07;;;9.27;;
1136;SDS011;557;48.466;7.950;2024-02-21T12:27:33;11.53;;;9.47;;
1136;SDS011;557;48.466;7.950;2024-02-21T12:29:59;10.53;;;9.53;;
1136;SDS011;557;48.466;7.950;2024-02-21T12:32:32;10.30;;;9.60;;
1136;SDS011;557;48.466;7.950;2024-02-21T12:34:59;9.60;;;8.83;;
1136;SDS011;557;48.466;7.950;2024-02-21T12:37:26;10.87;;;8.43;;
1136;SDS011;557;48.466;7.950;2024-02-21T12:39:53;10.80;;;9.90;;
1136;SDS011;557;48.466;7.950;2024-02-21T12:42:20;10.60;;;9.90;;
1136;SDS011;557;48.466;7.950;2024-02-21T12:44:48;10.27;;;9.47;;
1136;SDS011;557;48.466;7.950;2024-02-21T12:47:15;9.50;;;9.00;;
1136;SDS011;557;48.466;7.950;2024-02-21T12:49:45;10.27;;;9.43;;
1136;SDS011;557;48.466;7.950;2024-02-21T12:52:12;10.77;;;9.97;;
1136;SDS011;557;48.466;7.950;2024-02-21T12:54:39;10.83;;;10.03;;
1136;SDS011;557;48.466;7.950;2024-02-21T12:57:07;10.63;;;10.00;;
1136;SDS011;557;48.466;7.950;2024-02-21T12:59:35;11.33;;;10.30;;
1136;SDS011;557;48.466;7.950;2024-02-21T13:02:02;10.60;;;9.80;;
1136;SDS011;557;48.466;7.950;2024-02-21T13:04:29;11.10;;;10.00;;
1136;SDS011;557;48.466;7.950;2024-02-21T13:06:57;10.53;;;9.80;;
1136;SDS011;557;48.466;7.950;2024-02-21T13:09:24;10.10;;;9.50;;
1136;SDS011;557;48.466;7.950;2024-02-21T13:11:51;10.83;;;10.03;;
1136;SDS011;557;48.466;7.950;2024-02-21T13:14:18;10.40;;;9.70;;
1136;SDS011;557;48.466;7.950;2024-02-21T13:16:46;10.97;;;10.00;;
1136;SDS011;557;48.466;7.950;2024-02-21T13:19:13;12.97;;;10.27;;
1136;SDS011;557;48.466;7.950;2024-02-21T13:21:43;11.23;;;10.43;;
1136;SDS011;557;48.466;7.950;2024-02-21T13:24:12;11.00;;;10.20;;
1136;SDS011;557;48.466;7.950;2024-02-21T13:26:38;11.17;;;10.37;;
1136;SDS011;557;48.466;7.950;2024-02-21T13:29:05;10.53;;;9.93;;
1136;SDS011;557;48.466;7.950;2024-02-21T13:31:32;11.27;;;10.27;;
1136;SDS011;557;48.466;7.950;2024-02-21T13:33:59;11.60;;;10.67;;
1136;SDS011;557;48.466;7.950;2024-02-21T13:36:26;10.37;;;9.60;;
1136;SDS011;557;48.466;7.950;2024-02-21T13:38:53;10.93;;;10.03;;
1136;SDS011;557;48.466;7.950;2024-02-21T13:41:21;11.77;;;10.70;;
1136;SDS011;557;48.466;7.950;2024-02-21T13:43:48;10.30;;;9.60;;
1136;SDS011;557;48.466;7.950;2024-02-21T13:46:16;12.17;;;10.93;;
1136;SDS011;557;48.466;7.950;2024-02-21T13:48:43;10.33;;;9.73;;
1136;SDS011;557;48.466;7.950;2024-02-21T13:51:10;10.80;;;10.00;;
1136;SDS011;557;48.466;7.950;2024-02-21T13:53:37;11.17;;;10.37;;
1136;SDS011;557;48.466;7.950;2024-02-21T13:56:06;10.70;;;9.90;;
1136;SDS011;557;48.466;7.950;2024-02-21T13:58:37;11.00;;;10.20;;
1136;SDS011;557;48.466;7.950;2024-02-21T14:01:04;11.17;;;10.33;;
1136;SDS011;557;48.466;7.950;2024-02-21T14:03:31;10.90;;;10.20;;
1136;SDS011;557;48.466;7.950;2024-02-21T14:05:58;10.80;;;10.20;;
1136;SDS011;557;48.466;7.950;2024-02-21T14:08:24;11.43;;;10.63;;
1136;SDS011;557;48.466;7.950;2024-02-21T14:10:51;10.67;;;9.97;;
1136;SDS011;557;48.466;7.950;2024-02-21T14:13:18;11.10;;;10.30;;
1136;SDS011;557;48.466;7.950;2024-02-21T14:15:48;10.90;;;10.20;;
1136;SDS011;557;48.466;7.950;2024-02-21T14:18:15;11.07;;;10.37;;
1136;SDS011;557;48.466;7.950;2024-02-21T14:20:42;10.90;;;10.23;;
1136;SDS011;557;48.466;7.950;2024-02-21T14:23:09;11.33;;;10.53;;
1136;SDS011;557;48.466;7.950;2024-02-21T14:25:38;12.07;;;11.37;;
1136;SDS011;557;48.466;7.950;2024-02-21T14:28:07;11.40;;;10.90;;
1136;SDS011;557;48.466;7.950;2024-02-21T14:30:35;12.67;;;11.80;;
1136;SDS011;557;48.466;7.950;2024-02-21T14:33:03;12.43;;;11.73;;
1136;SDS011;557;48.466;7.950;2024-02-21T14:35:31;11.97;;;11.17;;
1136;SDS011;557;48.466;7.950;2024-02-21T14:37:59;11.50;;;10.80;;
1136;SDS011;557;48.466;7.950;2024-02-21T14:40:26;11.53;;;10.90;;
1136;SDS011;557;48.466;7.950;2024-02-21T14:42:55;11.37;;;10.77;;
1136;SDS011;557;48.466;7.950;2024-02-21T14:45:22;12.07;;;11.30;;
1136;SDS011;557;48.466;7.950;2024-02-21T14:47:48;12.13;;;11.23;;
1136;SDS011;557;48.466;7.950;2024-02-21T14:50:17;13.10;;;12.20;;
1136;SDS011;557;48.466;7.950;2024-02-21T14:52:44;12.00;;;11.30;;
1136;SDS011;557;48.466;7.950;2024-02-21T14:55:12;12.43;;;11.63;;
1136;SDS011;557;48.466;7.950;2024-02-21T14:57:40;12.20;;;11.30;;
1136;SDS011;557;48.466;7.950;2024-02-21T15:00:08;13.13;;;12.17;;
1136;SDS011;557;48.466;7.950;2024-02-21T15:02:36;11.50;;;10.90;;
1136;SDS011;557;48.466;7.950;2024-02-21T15:05:03;11.73;;;11.17;;
1136;SDS011;557;48.466;7.950;2024-02-21T15:07:32;12.43;;;11.63;;
1136;SDS011;557;48.466;7.950;2024-02-21T15:09:59;11.83;;;11.23;;
1136;SDS011;557;48.466;7.950;2024-02-21T15:12:25;11.60;;;11.00;;
1136;SDS011;557;48.466;7.950;2024-02-21T15:14:52;11.63;;;11.03;;
1136;SDS011;557;48.466;7.950;2024-02-21T15:17:19;11.77;;;11.17;;
1136;SDS011;557;48.466;7.950;2024-02-21T15:19:46;12.17;;;11.37;;
1136;SDS011;557;48.466;7.950;2024-02-21T15:22:13;12.10;;;11.47;;
1136;SDS011;557;48.466;7.950;2024-02-21T15:24:42;11.50;;;11.00;;
1136;SDS011;557;48.466;7.950;2024-02-21T15:27:11;13.30;;;12.50;;
1136;SDS011;557;48.466;7.950;2024-02-21T15:29:38;12.23;;;11.63;;